Time;durP1;ratioP1;P1;durP2;ratioP2;P2;SDS_P1;SDS_P2;PMS_P1;PMS_P2;Temp;Humidity;BMP_temperature;BMP_pressure;BME280_temperature;BME280_humidity;BME280_pressure;Samples;Min_cycle;Max_cycle;Signal;HPM_P1;HPM_P2
2023/01/18 00:00:49;;;;;;;18.83;11.77;;;;;;;;;;7380274;19;20031;-76
2023/01/18 00:03:15;;;;;;;19.80;11.82;;;;;;;;;;7382561;19;20070;-78
2023/01/18 00:05:40;;;;;;;17.10;11.27;;;;;;;;;;7379908;19;20026;-76
2023/01/18 00:08:06;;;;;;;17.77;11.48;;;;;;;;;;7382843;19;19999;-78
2023/01/18 00:10:31;;;;;;;17.90;10.35;;;;;;;;;;7383032;19;20398;-76
2023/01/18 00:12:56;;;;;;;16.63;10.93;;;;;;;;;;7382274;19;20035;-76
2023/01/18 00:15:22;;;;;;;15.18;9.82;;;;;;;;;;7383591;19;20332;-76
2023/01/18 00:17:50;;;;;;;20.13;10.90;;;;;;;;;;7383532;19;20360;-75
2023/01/18 00:20:16;;;;;;;20.67;10.60;;;;;;;;;;7383063;19;20006;-77
2023/01/18 00:22:41;;;;;;;22.75;10.93;;;;;;;;;;7382566;19;20010;-76
2023/01/18 00:25:09;;;;;;;21.55;12.55;;;;;;;;;;7383291;19;20337;-78
2023/01/18 00:27:34;;;;;;;25.55;13.00;;;;;;;;;;7383793;19;20062;-81
2023/01/18 00:30:00;;;;;;;19.30;11.00;;;;;;;;;;7383742;19;20134;-76
2023/01/18 00:32:25;;;;;;;21.06;11.02;;;;;;;;;;7384039;19;19991;-77
2023/01/18 00:34:50;;;;;;;19.25;10.77;;;;;;;;;;7383382;19;20354;-76
2023/01/18 00:37:15;;;;;;;18.55;10.07;;;;;;;;;;7382337;19;20437;-83
2023/01/18 00:39:41;;;;;;;19.95;10.25;;;;;;;;;;7380644;19;20086;-76
2023/01/18 00:44:50;;;;;;;21.20;10.73;;;;;;;;;;7382419;19;20031;-75
2023/01/18 00:47:15;;;;;;;24.52;11.85;;;;;;;;;;7382032;19;20002;-75
2023/01/18 00:49:41;;;;;;;21.23;11.13;;;;;;;;;;7381833;19;20006;-75
2023/01/18 00:52:06;;;;;;;20.73;12.18;;;;;;;;;;7382436;19;20010;-75
2023/01/18 00:54:31;;;;;;;22.13;12.60;;;;;;;;;;7380771;19;20014;-76
2023/01/18 00:56:57;;;;;;;24.65;11.80;;;;;;;;;;7381872;19;20007;-75
2023/01/18 00:59:22;;;;;;;26.13;12.50;;;;;;;;;;7381693;19;20011;-75
2023/01/18 01:01:47;;;;;;;23.24;10.74;;;;;;;;;;7383860;19;20071;-75
2023/01/18 01:06:56;;;;;;;26.20;12.50;;;;;;;;;;7381689;19;20369;-75
2023/01/18 01:09:23;;;;;;;22.30;12.57;;;;;;;;;;7380677;19;20018;-75
2023/01/18 01:28:12;;;;;;;26.17;11.97;;;;;;;;;;7380650;19;20231;-79
2023/01/18 01:30:37;;;;;;;22.67;10.80;;;;;;;;;;7379582;19;20322;-76
2023/01/18 01:33:03;;;;;;;20.13;9.75;;;;;;;;;;7381424;19;20303;-76
2023/01/18 01:35:28;;;;;;;20.30;11.13;;;;;;;;;;7381330;19;20011;-75
2023/01/18 01:37:53;;;;;;;25.00;10.85;;;;;;;;;;7379287;19;19994;-75
2023/01/18 01:40:18;;;;;;;22.25;10.73;;;;;;;;;;7381317;19;20023;-78
2023/01/18 01:42:43;;;;;;;27.68;12.88;;;;;;;;;;7380866;19;20454;-75
2023/01/18 01:45:09;;;;;;;22.13;11.63;;;;;;;;;;7380340;19;20114;-79
2023/01/18 01:47:40;;;;;;;23.35;11.85;;;;;;;;;;7379674;19;20027;-75
2023/01/18 01:50:08;;;;;;;23.42;11.25;;;;;;;;;;7380146;19;20023;-75
2023/01/18 01:52:35;;;;;;;21.17;11.35;;;;;;;;;;7379711;19;20003;-75
2023/01/18 01:55:00;;;;;;;21.63;11.07;;;;;;;;;;7380225;19;20324;-75
2023/01/18 01:57:35;;;;;;;20.45;10.40;;;;;;;;;;7379871;19;19986;-75
2023/01/18 02:00:08;;;;;;;21.83;11.63;;;;;;;;;;7378650;19;20286;-75
2023/01/18 02:02:34;;;;;;;21.05;10.13;;;;;;;;;;7384848;19;20121;-79
2023/01/18 02:04:59;;;;;;;19.23;10.23;;;;;;;;;;7386633;19;20126;-78
2023/01/18 02:07:25;;;;;;;22.60;11.25;;;;;;;;;;7387029;19;20119;-75
2023/01/18 02:09:50;;;;;;;23.48;11.32;;;;;;;;;;7387469;19;20046;-80
2023/01/18 02:12:16;;;;;;;24.92;11.15;;;;;;;;;;7388733;19;20166;-79
2023/01/18 02:14:41;;;;;;;22.83;10.88;;;;;;;;;;7387709;19;20428;-76
2023/01/18 02:17:30;;;;;;;23.75;11.35;;;;;;;;;;7387721;19;20023;-76
2023/01/18 02:20:07;;;;;;;20.65;10.57;;;;;;;;;;7387109;19;20018;-78
2023/01/18 02:22:51;;;;;;;26.15;11.27;;;;;;;;;;7378957;19;20089;-83
2023/01/18 02:25:25;;;;;;;23.83;11.98;;;;;;;;;;7377476;19;20371;-79
2023/01/18 02:28:10;;;;;;;22.55;11.25;;;;;;;;;;7377173;19;20003;-78
2023/01/18 02:30:53;;;;;;;18.98;10.38;;;;;;;;;;7375871;19;20010;-83
2023/01/18 02:33:30;;;;;;;22.77;12.13;;;;;;;;;;7374117;19;20063;-81
2023/01/18 02:35:56;;;;;;;22.90;10.10;;;;;;;;;;7374184;19;20014;-76
2023/01/18 02:38:36;;;;;;;23.23;11.25;;;;;;;;;;7372907;19;20171;-81
2023/01/18 02:41:09;;;;;;;23.35;11.68;;;;;;;;;;7370666;19;20047;-77
2023/01/18 02:46:34;;;;;;;;;;;;;;;;;;7374114;19;20069;-83
2023/01/18 02:49:01;;;;;;;22.23;12.60;;;;;;;;;;7370560;19;19919;-80
2023/01/18 02:51:26;;;;;;;24.80;11.77;;;;;;;;;;7369351;19;20063;-79
2023/01/18 02:53:51;;;;;;;22.35;11.98;;;;;;;;;;7371294;19;20044;-77
2023/01/18 02:56:19;;;;;;;20.70;11.55;;;;;;;;;;7372158;19;20010;-79
2023/01/18 02:58:54;;;;;;;20.88;12.50;;;;;;;;;;7370222;19;20011;-76
2023/01/18 03:01:25;;;;;;;26.63;13.00;;;;;;;;;;7369109;19;20020;-81
2023/01/18 03:03:52;;;;;;;23.55;12.65;;;;;;;;;;7370807;19;20014;-84
2023/01/18 03:06:19;;;;;;;26.75;13.18;;;;;;;;;;7370686;19;20732;-76
2023/01/18 03:08:48;;;;;;;25.42;14.00;;;;;;;;;;7369469;19;20011;-81
2023/01/18 03:11:17;;;;;;;27.05;13.80;;;;;;;;;;7371322;19;20064;-81
2023/01/18 03:13:45;;;;;;;21.67;12.38;;;;;;;;;;7372346;19;20078;-77
2023/01/18 03:16:13;;;;;;;23.52;13.02;;;;;;;;;;7373267;19;20408;-78
2023/01/18 03:19:01;;;;;;;22.35;13.07;;;;;;;;;;7370306;19;19999;-76
2023/01/18 03:21:32;;;;;;;31.27;14.75;;;;;;;;;;7371529;19;20346;-76
2023/01/18 03:23:59;;;;;;;23.30;14.57;;;;;;;;;;7381046;19;20128;-78
2023/01/18 03:26:25;;;;;;;25.27;15.02;;;;;;;;;;7383579;19;20439;-76
2023/01/18 03:34:21;;;;;;;;;;;;;;;;;;7385017;19;20026;-76
2023/01/18 03:36:47;;;;;;;31.73;16.63;;;;;;;;;;7381270;19;19915;-77
2023/01/18 03:39:17;;;;;;;36.92;17.48;;;;;;;;;;7382640;19;20033;-76
2023/01/18 03:41:44;;;;;;;34.65;17.92;;;;;;;;;;7380308;19;20023;-76
2023/01/18 03:44:12;;;;;;;39.72;20.15;;;;;;;;;;7382802;19;20519;-81
2023/01/18 03:46:38;;;;;;;36.45;19.42;;;;;;;;;;7382654;19;20442;-77
2023/01/18 03:49:04;;;;;;;33.35;19.38;;;;;;;;;;7383611;19;20317;-76
2023/01/18 03:51:49;;;;;;;34.65;19.10;;;;;;;;;;7383293;19;20419;-76
2023/01/18 03:54:22;;;;;;;35.80;19.05;;;;;;;;;;7383390;19;20110;-81
2023/01/18 03:56:51;;;;;;;35.75;22.17;;;;;;;;;;7381884;19;20450;-77
2023/01/18 03:59:16;;;;;;;37.63;19.80;;;;;;;;;;7382830;19;20010;-76
2023/01/18 04:01:43;;;;;;;35.47;21.67;;;;;;;;;;7380969;19;20455;-76
2023/01/18 04:04:09;;;;;;;37.28;21.88;;;;;;;;;;7380151;19;20026;-76
2023/01/18 04:06:34;;;;;;;40.42;22.20;;;;;;;;;;7382961;19;20431;-78
2023/01/18 04:08:59;;;;;;;39.08;22.27;;;;;;;;;;7382448;19;20030;-76
2023/01/18 04:11:24;;;;;;;39.42;24.50;;;;;;;;;;7381227;19;19994;-77
2023/01/18 04:13:50;;;;;;;35.95;22.58;;;;;;;;;;7382009;19;20018;-76
2023/01/18 04:16:15;;;;;;;34.83;22.23;;;;;;;;;;7380736;19;20006;-76
2023/01/18 04:18:40;;;;;;;41.03;22.27;;;;;;;;;;7382700;19;20346;-77
2023/01/18 04:21:05;;;;;;;43.40;24.33;;;;;;;;;;7379860;19;20025;-80
2023/01/18 04:23:31;;;;;;;43.75;24.08;;;;;;;;;;7380900;19;20027;-76
2023/01/18 04:25:56;;;;;;;42.05;24.98;;;;;;;;;;7381731;19;20167;-76
2023/01/18 04:28:26;;;;;;;46.05;26.75;;;;;;;;;;7381281;19;20007;-77
2023/01/18 04:30:52;;;;;;;48.75;26.58;;;;;;;;;;7381961;19;20083;-76
2023/01/18 04:33:19;;;;;;;46.10;25.55;;;;;;;;;;7381853;19;20014;-78
2023/01/18 04:35:44;;;;;;;47.85;28.38;;;;;;;;;;7380594;19;20010;-87
2023/01/18 04:38:09;;;;;;;47.58;29.45;;;;;;;;;;7379090;19;20042;-79
2023/01/18 04:40:34;;;;;;;49.25;29.02;;;;;;;;;;7377263;19;20035;-79
2023/01/18 04:43:00;;;;;;;47.78;27.98;;;;;;;;;;7379267;19;20361;-76
2023/01/18 04:45:25;;;;;;;49.70;29.95;;;;;;;;;;7380321;19;20440;-80
2023/01/18 04:47:50;;;;;;;52.20;30.48;;;;;;;;;;7378776;19;20531;-76
2023/01/18 04:50:15;;;;;;;46.38;27.80;;;;;;;;;;7379661;19;20371;-77
2023/01/18 04:52:41;;;;;;;41.33;25.20;;;;;;;;;;7376553;19;20002;-77
2023/01/18 04:55:06;;;;;;;41.58;24.83;;;;;;;;;;7379976;19;20442;-76
2023/01/18 04:57:32;;;;;;;45.17;25.90;;;;;;;;;;7380006;19;19994;-77
2023/01/18 04:59:59;;;;;;;46.17;26.95;;;;;;;;;;7378427;19;20033;-80
2023/01/18 05:02:24;;;;;;;44.97;26.25;;;;;;;;;;7377486;19;20010;-77
2023/01/18 05:04:49;;;;;;;47.03;25.75;;;;;;;;;;7378612;19;20074;-79
2023/01/18 05:07:14;;;;;;;42.17;24.08;;;;;;;;;;7378265;19;20074;-78
2023/01/18 05:09:39;;;;;;;44.55;22.63;;;;;;;;;;7377858;19;20014;-83
2023/01/18 05:12:05;;;;;;;34.45;22.17;;;;;;;;;;7378274;19;20277;-76
2023/01/18 05:14:30;;;;;;;39.65;20.42;;;;;;;;;;7378937;19;20320;-76
2023/01/18 05:16:55;;;;;;;32.45;18.45;;;;;;;;;;7374686;19;20015;-78
2023/01/18 05:19:20;;;;;;;32.95;17.60;;;;;;;;;;7377063;19;20114;-76
2023/01/18 05:21:46;;;;;;;28.15;17.58;;;;;;;;;;7376631;19;20578;-78
2023/01/18 05:24:11;;;;;;;31.92;18.05;;;;;;;;;;7374107;19;20062;-77
2023/01/18 05:26:36;;;;;;;33.95;17.80;;;;;;;;;;7379104;19;20002;-77
2023/01/18 05:29:01;;;;;;;32.17;19.60;;;;;;;;;;7378111;19;20017;-76
2023/01/18 05:31:26;;;;;;;34.15;20.40;;;;;;;;;;7378105;19;19995;-76
2023/01/18 05:33:52;;;;;;;37.90;21.15;;;;;;;;;;7376999;19;20027;-76
2023/01/18 05:36:17;;;;;;;33.05;19.67;;;;;;;;;;7374965;19;20121;-78
2023/01/18 05:38:42;;;;;;;38.63;21.05;;;;;;;;;;7377946;19;20092;-78
2023/01/18 05:41:07;;;;;;;38.12;22.24;;;;;;;;;;7376474;19;19995;-77
2023/01/18 05:43:33;;;;;;;37.35;23.38;;;;;;;;;;7378694;19;20498;-78
2023/01/18 05:45:58;;;;;;;38.40;21.20;;;;;;;;;;7378138;19;20034;-76
2023/01/18 05:48:23;;;;;;;42.15;25.05;;;;;;;;;;7379190;19;20522;-76
2023/01/18 05:50:49;;;;;;;47.72;27.20;;;;;;;;;;7379509;19;20018;-79
2023/01/18 05:53:15;;;;;;;45.78;23.65;;;;;;;;;;7375818;19;20025;-76
2023/01/18 05:55:40;;;;;;;50.88;28.65;;;;;;;;;;7377928;19;20015;-78
2023/01/18 05:58:06;;;;;;;52.97;28.83;;;;;;;;;;7376781;19;20385;-78
2023/01/18 06:00:33;;;;;;;49.28;28.27;;;;;;;;;;7376811;19;20031;-82
2023/01/18 06:02:58;;;;;;;60.15;31.17;;;;;;;;;;7371095;19;20002;-76
2023/01/18 06:05:23;;;;;;;47.95;29.25;;;;;;;;;;7376118;19;20027;-82
2023/01/18 06:07:49;;;;;;;63.08;34.25;;;;;;;;;;7375622;19;20339;-76
2023/01/18 06:10:15;;;;;;;58.33;30.95;;;;;;;;;;7376545;19;20030;-76
2023/01/18 06:12:40;;;;;;;64.55;38.35;;;;;;;;;;7376070;19;20336;-79
2023/01/18 06:15:09;;;;;;;49.10;32.50;;;;;;;;;;7375976;19;20407;-77
2023/01/18 06:17:35;;;;;;;54.40;31.42;;;;;;;;;;7376253;19;20074;-76
2023/01/18 06:20:00;;;;;;;65.22;38.20;;;;;;;;;;7371805;19;20067;-78
2023/01/18 06:22:25;;;;;;;57.63;34.97;;;;;;;;;;7375523;19;19997;-76
2023/01/18 06:24:51;;;;;;;62.58;34.55;;;;;;;;;;7363230;19;20226;-79
2023/01/18 06:27:16;;;;;;;51.72;30.02;;;;;;;;;;7364776;19;20312;-78
2023/01/18 06:29:41;;;;;;;51.35;29.80;;;;;;;;;;7373747;19;20030;-77
2023/01/18 06:32:06;;;;;;;50.62;30.68;;;;;;;;;;7367769;19;20005;-77
2023/01/18 06:34:32;;;;;;;50.33;30.48;;;;;;;;;;7365290;19;20018;-78
2023/01/18 06:36:57;;;;;;;54.97;31.70;;;;;;;;;;7363155;19;20337;-79
2023/01/18 06:39:22;;;;;;;58.03;32.50;;;;;;;;;;7368306;19;20021;-77
2023/01/18 06:41:48;;;;;;;58.38;30.75;;;;;;;;;;7371683;19;20324;-79
2023/01/18 06:44:13;;;;;;;49.80;29.40;;;;;;;;;;7370783;19;20043;-77
2023/01/18 06:46:38;;;;;;;45.60;27.73;;;;;;;;;;7367743;19;20174;-79
2023/01/18 06:49:03;;;;;;;57.80;27.55;;;;;;;;;;7375663;19;20307;-77
2023/01/18 06:51:28;;;;;;;46.65;25.58;;;;;;;;;;7377561;19;20001;-78
2023/01/18 06:53:54;;;;;;;49.40;27.17;;;;;;;;;;7380534;19;20077;-77
2023/01/18 06:56:19;;;;;;;41.22;24.17;;;;;;;;;;7378911;19;20396;-78
2023/01/18 06:58:45;;;;;;;44.30;25.38;;;;;;;;;;7381153;19;20023;-77
2023/01/18 07:01:10;;;;;;;41.67;25.02;;;;;;;;;;7376086;19;20007;-77
2023/01/18 07:03:35;;;;;;;40.42;25.13;;;;;;;;;;7379856;19;20003;-77
2023/01/18 07:06:02;;;;;;;42.92;24.83;;;;;;;;;;7376187;19;20002;-83
2023/01/18 07:08:29;;;;;;;41.13;24.58;;;;;;;;;;7378034;19;20014;-78
2023/01/18 07:10:55;;;;;;;42.33;25.23;;;;;;;;;;7378570;19;20007;-78
2023/01/18 07:13:20;;;;;;;44.78;26.10;;;;;;;;;;7375608;19;20022;-78
2023/01/18 07:15:50;;;;;;;47.28;26.95;;;;;;;;;;7379748;19;19995;-80
2023/01/18 07:18:16;;;;;;;53.45;30.02;;;;;;;;;;7373134;19;20043;-77
2023/01/18 07:20:41;;;;;;;53.67;29.77;;;;;;;;;;7376181;19;20083;-81
2023/01/18 07:23:06;;;;;;;54.72;32.17;;;;;;;;;;7376326;19;20113;-77
2023/01/18 07:25:31;;;;;;;62.33;34.20;;;;;;;;;;7379408;19;20108;-79
2023/01/18 07:27:57;;;;;;;52.90;31.73;;;;;;;;;;7378329;19;19991;-77
2023/01/18 07:30:22;;;;;;;47.40;29.40;;;;;;;;;;7372440;19;19999;-77
2023/01/18 07:32:48;;;;;;;51.30;30.33;;;;;;;;;;7379057;19;20469;-77
2023/01/18 07:35:14;;;;;;;63.88;33.60;;;;;;;;;;7371714;19;20095;-79
2023/01/18 07:37:39;;;;;;;52.65;29.55;;;;;;;;;;7372046;19;20328;-77
2023/01/18 07:40:05;;;;;;;60.42;30.20;;;;;;;;;;7375144;19;20029;-78
2023/01/18 07:42:30;;;;;;;52.15;31.17;;;;;;;;;;7369134;19;20852;-80
2023/01/18 07:44:55;;;;;;;55.72;32.83;;;;;;;;;;7376934;19;20021;-79
2023/01/18 07:47:20;;;;;;;58.13;34.15;;;;;;;;;;7379558;19;20304;-76
2023/01/18 07:49:46;;;;;;;56.40;32.50;;;;;;;;;;7378694;19;20026;-79
2023/01/18 07:52:11;;;;;;;53.17;31.52;;;;;;;;;;7379648;19;20126;-77
2023/01/18 07:54:36;;;;;;;59.83;33.50;;;;;;;;;;7380321;19;19994;-81
2023/01/18 07:57:01;;;;;;;59.50;33.97;;;;;;;;;;7373056;19;20023;-79
2023/01/18 07:59:29;;;;;;;61.22;33.95;;;;;;;;;;7378535;19;20214;-77
2023/01/18 08:01:55;;;;;;;63.30;34.38;;;;;;;;;;7378195;19;20091;-79
2023/01/18 08:04:20;;;;;;;56.45;32.60;;;;;;;;;;7377263;19;20333;-78
2023/01/18 08:06:45;;;;;;;58.74;33.52;;;;;;;;;;7379232;19;20003;-78
2023/01/18 08:09:10;;;;;;;61.03;35.70;;;;;;;;;;7380224;19;20042;-78
2023/01/18 08:11:36;;;;;;;63.30;37.60;;;;;;;;;;7381202;19;20453;-79
2023/01/18 08:14:01;;;;;;;57.88;35.60;;;;;;;;;;7380453;19;20074;-76
2023/01/18 08:16:28;;;;;;;63.78;38.00;;;;;;;;;;7378996;19;20408;-82
2023/01/18 08:18:53;;;;;;;73.60;42.65;;;;;;;;;;7379009;19;20019;-81
2023/01/18 08:21:18;;;;;;;69.15;39.13;;;;;;;;;;7376782;19;20124;-78
2023/01/18 08:23:43;;;;;;;65.07;36.67;;;;;;;;;;7377657;19;20416;-78
2023/01/18 08:26:09;;;;;;;60.47;33.28;;;;;;;;;;7368239;19;19998;-78
2023/01/18 08:28:35;;;;;;;61.63;36.47;;;;;;;;;;7378890;19;20017;-77
2023/01/18 08:31:14;;;;;;;52.30;32.08;;;;;;;;;;7378912;19;20017;-77
2023/01/18 08:33:41;;;;;;;56.65;31.27;;;;;;;;;;7379197;19;20099;-78
2023/01/18 08:36:10;;;;;;;50.92;30.38;;;;;;;;;;7375687;19;20076;-81
2023/01/18 08:38:35;;;;;;;52.60;30.92;;;;;;;;;;7379456;19;20326;-79
2023/01/18 08:41:01;;;;;;;50.67;28.45;;;;;;;;;;7376317;19;20010;-77
2023/01/18 08:43:27;;;;;;;53.17;29.45;;;;;;;;;;7378193;19;20486;-78
2023/01/18 08:45:52;;;;;;;56.13;32.15;;;;;;;;;;7377401;19;20033;-77
2023/01/18 08:48:18;;;;;;;55.30;32.17;;;;;;;;;;7375495;19;20368;-78
2023/01/18 08:50:44;;;;;;;52.17;32.38;;;;;;;;;;7377370;19;20018;-79
2023/01/18 08:53:09;;;;;;;70.60;38.00;;;;;;;;;;7375695;19;20021;-80
2023/01/18 08:55:37;;;;;;;85.32;47.95;;;;;;;;;;7376069;19;20066;-78
2023/01/18 08:58:02;;;;;;;99.10;54.03;;;;;;;;;;7376067;19;20316;-80
2023/01/18 09:00:27;;;;;;;76.75;44.83;;;;;;;;;;7376004;19;20105;-78
2023/01/18 09:02:53;;;;;;;69.78;35.30;;;;;;;;;;7375239;19;19998;-79
2023/01/18 09:05:18;;;;;;;50.78;29.20;;;;;;;;;;7376132;19;20431;-78
2023/01/18 09:07:44;;;;;;;53.65;31.52;;;;;;;;;;7377362;19;20083;-78
2023/01/18 09:10:09;;;;;;;54.28;31.63;;;;;;;;;;7377030;19;20110;-79
2023/01/18 09:12:35;;;;;;;46.55;28.85;;;;;;;;;;7378494;19;20002;-79
2023/01/18 09:15:00;;;;;;;54.10;30.52;;;;;;;;;;7375507;19;20031;-81
2023/01/18 09:17:25;;;;;;;54.78;29.73;;;;;;;;;;7374827;19;20066;-78
2023/01/18 09:19:51;;;;;;;54.30;29.20;;;;;;;;;;7376136;19;20025;-78
2023/01/18 09:22:16;;;;;;;54.17;29.98;;;;;;;;;;7374474;19;19994;-78
2023/01/18 09:24:42;;;;;;;55.80;30.35;;;;;;;;;;7377785;19;20011;-79
2023/01/18 09:27:07;;;;;;;54.33;29.30;;;;;;;;;;7377152;19;20114;-80
2023/01/18 09:29:32;;;;;;;50.03;26.67;;;;;;;;;;7377991;19;20382;-80
2023/01/18 09:31:58;;;;;;;52.08;28.52;;;;;;;;;;7375931;19;20010;-78
2023/01/18 09:34:23;;;;;;;47.72;26.85;;;;;;;;;;7376158;19;20329;-79
2023/01/18 09:36:50;;;;;;;49.60;26.17;;;;;;;;;;7375208;19;20010;-78
2023/01/18 09:39:15;;;;;;;51.63;27.23;;;;;;;;;;7376479;19;20010;-79
2023/01/18 09:41:48;;;;;;;44.28;24.83;;;;;;;;;;7375795;19;20375;-78
2023/01/18 09:44:27;;;;;;;46.15;25.42;;;;;;;;;;7375376;19;20022;-81
2023/01/18 09:47:04;;;;;;;44.38;27.40;;;;;;;;;;7375773;19;20010;-79
2023/01/18 09:49:29;;;;;;;47.08;25.38;;;;;;;;;;7375103;19;20443;-78
2023/01/18 09:52:00;;;;;;;48.08;25.63;;;;;;;;;;7375183;19;19994;-82
2023/01/18 09:54:39;;;;;;;42.33;25.00;;;;;;;;;;7375967;19;20744;-79
2023/01/18 09:57:10;;;;;;;37.78;23.50;;;;;;;;;;7377177;19;20014;-79
2023/01/18 09:59:44;;;;;;;45.80;26.20;;;;;;;;;;7377400;19;20690;-79
2023/01/18 10:02:31;;;;;;;42.40;24.27;;;;;;;;;;7371090;19;20026;-80
2023/01/18 10:05:01;;;;;;;43.00;25.02;;;;;;;;;;7377095;19;20165;-78
2023/01/18 10:07:29;;;;;;;54.22;27.10;;;;;;;;;;7374515;19;19999;-79
2023/01/18 10:09:55;;;;;;;48.47;27.48;;;;;;;;;;7376272;19;20007;-77
2023/01/18 10:12:35;;;;;;;49.90;28.05;;;;;;;;;;7373392;19;20005;-79
2023/01/18 10:15:16;;;;;;;53.15;27.88;;;;;;;;;;7375487;19;20144;-78
2023/01/18 10:17:42;;;;;;;41.13;24.42;;;;;;;;;;7372844;19;20368;-78
2023/01/18 10:20:13;;;;;;;43.80;23.02;;;;;;;;;;7374589;19;20015;-78
2023/01/18 10:22:57;;;;;;;45.80;23.67;;;;;;;;;;7377478;19;20342;-79
2023/01/18 10:25:37;;;;;;;38.42;21.95;;;;;;;;;;7380014;19;20083;-79
2023/01/18 10:28:05;;;;;;;42.13;22.88;;;;;;;;;;7381115;19;20448;-79
2023/01/18 10:30:37;;;;;;;37.47;20.95;;;;;;;;;;7381400;19;20011;-78
2023/01/18 10:33:10;;;;;;;41.80;22.38;;;;;;;;;;7382817;19;20007;-78
2023/01/18 10:35:38;;;;;;;42.50;25.38;;;;;;;;;;7381143;19;20023;-78
2023/01/18 10:38:07;;;;;;;38.45;22.20;;;;;;;;;;7381005;19;19997;-80
2023/01/18 10:40:33;;;;;;;49.83;23.92;;;;;;;;;;7378088;19;20007;-78
2023/01/18 10:43:01;;;;;;;40.88;21.83;;;;;;;;;;7382269;19;20723;-78
2023/01/18 10:45:27;;;;;;;40.15;21.55;;;;;;;;;;7379481;19;20015;-80
2023/01/18 10:47:53;;;;;;;43.28;18.50;;;;;;;;;;7382235;19;20486;-78
2023/01/18 10:50:23;;;;;;;35.90;19.98;;;;;;;;;;7381359;19;20014;-81
2023/01/18 10:52:48;;;;;;;42.25;22.98;;;;;;;;;;7379984;19;20013;-79
2023/01/18 10:55:16;;;;;;;41.50;22.20;;;;;;;;;;7380473;19;20494;-82
2023/01/18 10:57:52;;;;;;;43.22;22.98;;;;;;;;;;7381095;19;20566;-78
2023/01/18 11:00:33;;;;;;;45.58;23.35;;;;;;;;;;7378889;19;20118;-78
2023/01/18 11:03:00;;;;;;;42.28;21.83;;;;;;;;;;7378444;19;20010;-78
2023/01/18 11:05:30;;;;;;;43.58;24.15;;;;;;;;;;7379920;19;20018;-78
2023/01/18 11:08:14;;;;;;;47.67;22.65;;;;;;;;;;7378589;19;20003;-78
2023/01/18 11:10:42;;;;;;;40.90;23.33;;;;;;;;;;7380365;19;20010;-78
2023/01/18 11:13:23;;;;;;;45.55;23.88;;;;;;;;;;7378992;19;20070;-78
2023/01/18 11:15:51;;;;;;;41.60;23.67;;;;;;;;;;7382110;19;20026;-78
2023/01/18 11:18:17;;;;;;;39.70;22.52;;;;;;;;;;7377387;19;20014;-80
2023/01/18 11:20:47;;;;;;;41.70;22.95;;;;;;;;;;7379445;19;20459;-79
2023/01/18 11:23:15;;;;;;;41.13;23.45;;;;;;;;;;7379985;19;20028;-78
2023/01/18 11:25:44;;;;;;;42.53;22.65;;;;;;;;;;7379880;19;20409;-78
2023/01/18 11:28:17;;;;;;;41.50;22.88;;;;;;;;;;7380076;19;20086;-79
2023/01/18 11:30:48;;;;;;;40.53;21.95;;;;;;;;;;7376556;19;19999;-81
2023/01/18 11:33:16;;;;;;;40.15;21.58;;;;;;;;;;7376747;19;20010;-78
2023/01/18 11:35:43;;;;;;;38.72;20.45;;;;;;;;;;7380683;19;20101;-79
2023/01/18 11:38:16;;;;;;;40.05;21.55;;;;;;;;;;7378046;19;20075;-80
2023/01/18 11:40:42;;;;;;;38.80;21.73;;;;;;;;;;7378755;19;20090;-81
2023/01/18 11:43:14;;;;;;;44.25;21.10;;;;;;;;;;7377529;19;20014;-78
2023/01/18 11:45:58;;;;;;;36.75;20.88;;;;;;;;;;7377857;19;20006;-79
2023/01/18 11:48:35;;;;;;;40.88;22.00;;;;;;;;;;7378960;19;20398;-78
2023/01/18 11:51:19;;;;;;;33.22;20.58;;;;;;;;;;7380172;19;20116;-81
2023/01/18 11:53:44;;;;;;;;;;;;;;;;;;7380590;19;20122;-78
2023/01/18 11:56:13;;;;;;;35.33;19.67;;;;;;;;;;7380278;19;19935;-79
2023/01/18 11:58:39;;;;;;;36.22;19.10;;;;;;;;;;7378090;19;20019;-80
2023/01/18 12:01:23;;;;;;;34.00;19.73;;;;;;;;;;7376958;19;20115;-79
2023/01/18 12:03:51;;;;;;;39.00;19.77;;;;;;;;;;7377965;19;20030;-79
2023/01/18 12:06:23;;;;;;;32.10;19.67;;;;;;;;;;7376290;19;20467;-78
2023/01/18 12:08:51;;;;;;;37.90;21.85;;;;;;;;;;7373170;19;20326;-79
2023/01/18 12:11:17;;;;;;;32.45;19.52;;;;;;;;;;7378400;19;20009;-80
2023/01/18 12:14:04;;;;;;;30.25;18.92;;;;;;;;;;7374192;19;20074;-78
2023/01/18 12:16:42;;;;;;;32.13;20.13;;;;;;;;;;7374983;19;20082;-78
2023/01/18 12:19:25;;;;;;;33.63;19.35;;;;;;;;;;7379794;19;20031;-78
2023/01/18 12:22:09;;;;;;;31.63;18.92;;;;;;;;;;7373209;19;19998;-79
2023/01/18 12:24:43;;;;;;;33.95;17.90;;;;;;;;;;7376832;19;20022;-79
2023/01/18 12:27:24;;;;;;;28.88;16.25;;;;;;;;;;7375015;19;20436;-82
2023/01/18 12:29:58;;;;;;;28.35;15.32;;;;;;;;;;7377382;19;20011;-79
2023/01/18 12:32:32;;;;;;;27.58;15.43;;;;;;;;;;7374568;19;20026;-78
2023/01/18 12:35:09;;;;;;;29.42;14.98;;;;;;;;;;7377020;19;20064;-78
2023/01/18 12:37:41;;;;;;;26.40;15.05;;;;;;;;;;7375087;19;20074;-80
2023/01/18 12:40:25;;;;;;;23.02;12.23;;;;;;;;;;7377453;19;20031;-78
2023/01/18 12:42:51;;;;;;;;;;;;;;;;;;7379570;19;20049;-79
2023/01/18 12:45:16;;;;;;;15.55;8.40;;;;;;;;;;7375656;19;19950;-78
2023/01/18 12:47:47;;;;;;;17.33;9.50;;;;;;;;;;7377309;19;20006;-79
2023/01/18 12:50:12;;;;;;;14.55;8.02;;;;;;;;;;7377814;19;20022;-78
2023/01/18 12:52:41;;;;;;;14.75;8.25;;;;;;;;;;7371969;19;20309;-78
2023/01/18 12:55:07;;;;;;;15.88;8.18;;;;;;;;;;7374686;19;20015;-80
2023/01/18 12:57:32;;;;;;;14.27;8.13;;;;;;;;;;7369901;19;20006;-81
2023/01/18 13:00:00;;;;;;;13.25;7.45;;;;;;;;;;7374743;19;20130;-78
2023/01/18 13:02:39;;;;;;;15.15;7.95;;;;;;;;;;7370088;19;20151;-79
2023/01/18 13:05:10;;;;;;;16.80;6.88;;;;;;;;;;7374902;19;20050;-79
2023/01/18 13:07:38;;;;;;;18.42;8.40;;;;;;;;;;7371898;19;20301;-79
2023/01/18 13:10:04;;;;;;;15.77;6.95;;;;;;;;;;7375862;19;20113;-78
2023/01/18 13:12:30;;;;;;;12.88;7.05;;;;;;;;;;7373870;19;20093;-79
2023/01/18 13:15:05;;;;;;;13.93;7.00;;;;;;;;;;7374881;19;20566;-80
2023/01/18 13:17:37;;;;;;;12.93;7.07;;;;;;;;;;7372563;19;20459;-80
2023/01/18 13:20:06;;;;;;;14.30;8.20;;;;;;;;;;7372850;19;20019;-78
2023/01/18 13:23:09;;;;;;;14.60;8.40;;;;;;;;;;7368582;19;20006;-79
2023/01/18 13:25:47;;;;;;;15.45;7.85;;;;;;;;;;7368938;19;20010;-79
2023/01/18 13:28:17;;;;;;;15.88;9.02;;;;;;;;;;7369940;19;20038;-79
2023/01/18 13:30:52;;;;;;;20.83;9.80;;;;;;;;;;7369787;19;20380;-79
2023/01/18 13:33:21;;;;;;;18.58;9.55;;;;;;;;;;7369048;19;20014;-80
2023/01/18 13:35:57;;;;;;;18.40;9.68;;;;;;;;;;7371121;19;20014;-79
2023/01/18 13:38:24;;;;;;;16.80;9.25;;;;;;;;;;7370756;19;20023;-78
2023/01/18 13:41:15;;;;;;;17.52;9.45;;;;;;;;;;7370735;19;20071;-78
2023/01/18 13:43:44;;;;;;;17.45;8.82;;;;;;;;;;7369047;19;20014;-80
2023/01/18 13:46:23;;;;;;;17.58;9.52;;;;;;;;;;7371399;19;20011;-78
2023/01/18 13:48:54;;;;;;;16.65;8.48;;;;;;;;;;7372227;19;20027;-78
2023/01/18 13:51:28;;;;;;;18.35;8.93;;;;;;;;;;7371414;19;20018;-78
2023/01/18 13:53:53;;;;;;;16.05;8.52;;;;;;;;;;7372555;19;20022;-80
2023/01/18 13:56:21;;;;;;;14.23;8.20;;;;;;;;;;7369222;19;20006;-79
2023/01/18 13:58:52;;;;;;;17.20;8.15;;;;;;;;;;7371302;19;20843;-79
2023/01/18 14:01:20;;;;;;;17.17;7.95;;;;;;;;;;7370458;19;20002;-78
2023/01/18 14:03:48;;;;;;;12.52;7.47;;;;;;;;;;7371114;19;20157;-78
2023/01/18 14:06:33;;;;;;;14.57;8.32;;;;;;;;;;7370932;19;19994;-79
2023/01/18 14:09:04;;;;;;;15.73;8.05;;;;;;;;;;7370519;19;20010;-78
2023/01/18 14:11:30;;;;;;;18.05;8.70;;;;;;;;;;7352677;19;20470;-78
2023/01/18 14:14:01;;;;;;;16.88;8.68;;;;;;;;;;7371643;19;20002;-79
2023/01/18 14:16:28;;;;;;;15.13;7.82;;;;;;;;;;7371149;19;20337;-79
2023/01/18 14:19:02;;;;;;;15.90;8.60;;;;;;;;;;7371571;19;20055;-78
2023/01/18 14:21:27;;;;;;;35.40;15.18;;;;;;;;;;7365134;19;20327;-78
2023/01/18 14:24:11;;;;;;;21.15;10.68;;;;;;;;;;7368179;19;20015;-78
2023/01/18 14:26:38;;;;;;;14.30;7.90;;;;;;;;;;7368864;19;20007;-78
2023/01/18 14:29:10;;;;;;;17.08;8.75;;;;;;;;;;7367182;19;20018;-78
2023/01/18 14:31:44;;;;;;;15.98;7.82;;;;;;;;;;7368002;19;20035;-79
2023/01/18 14:34:11;;;;;;;;;;;;;;;;;;7368260;19;20499;-80
2023/01/18 14:36:36;;;;;;;12.50;6.55;;;;;;;;;;7363306;19;19923;-78
2023/01/18 14:39:05;;;;;;;11.82;6.57;;;;;;;;;;7367670;19;20078;-78
2023/01/18 14:41:30;;;;;;;12.02;6.63;;;;;;;;;;7365661;19;20338;-79
2023/01/18 14:43:55;;;;;;;14.20;7.30;;;;;;;;;;7371819;19;20014;-79
2023/01/18 14:46:22;;;;;;;14.27;7.80;;;;;;;;;;7369038;19;19999;-80
2023/01/18 14:48:50;;;;;;;14.43;7.82;;;;;;;;;;7366886;19;20359;-78
2023/01/18 14:51:21;;;;;;;15.13;8.32;;;;;;;;;;7370231;19;20064;-78
2023/01/18 14:54:05;;;;;;;15.30;8.45;;;;;;;;;;7369396;19;20153;-79
2023/01/18 14:56:33;;;;;;;13.77;8.15;;;;;;;;;;7369369;19;20150;-79
2023/01/18 14:58:59;;;;;;;15.93;8.35;;;;;;;;;;7370749;19;20042;-78